首页
METAR-TAF:

METAR-TAF

机场 :

赫尔辛基-万塔机场

赫尔辛基, 芬兰

纬度: 60-19N, 经度: 024-58E, 海拔: 51米

当前天气观测

该预报发布于19分钟前的21:20 UTC
风速21节,风向南转西南
温度 10°C
湿度 100%
气压 1010 hPa
能見度: 5000
多云层高于600英尺
小毛毛雨

METAR: EFHK 212120Z 20021KT 5000 -DZ BKN006 10/10 Q1010 NOSIG

时间: 00:39 (21:39 UTC)

预报

该预报发布于1小时和3分钟前的20:36 UTC
预报有效从21日的 21点(UTC)到 22日的 21点(UTC)
风速18节,风向西南
能見度: 7000
多云层高于700英尺
小毛毛雨
短暂存在
从 21日的 21点(UTC)到 22日的 05点(UTC)
风速20节,风向西南,有时为30节阵风
能見度: 3000
几率 30% :
短暂存在
从 22日的 01点(UTC)到 22日的 05点(UTC)
能見度: 4000
多云层高于400英尺
成为
从 22日的 05点(UTC)到 22日的 07点(UTC)
风速10节,风向西
能见度10公里或以上
散云层高于2000英尺

TAF: EFHK 212036Z 2121/2221 22018KT 7000 -DZ BKN007 TEMPO 2121/2205 22020G30KT 3000 PROB30 TEMPO 2201/2205 4000 BKN004 BECMG 2205/2207 27010KT 9999 SCT020

超过4000个机场的气象观测和天气预报(METAR&TAF报告)。

可查询的气象台以黄色和红色小点在地图上表示。

将鼠标移到小点上方,可查看气象台名称。

然后点击查看天气观测和预报。

如需切换地图:点击带黑十字的绿色按钮放大地图;点击带横线的绿色按钮缩小地图;或者点击绿色箭头查看邻近地区的地图。


METAR-TAF: